sensor_id;sensor_type;location;lat;lon;timestamp;temperature;humidity
19878;DHT22;10101;52.204;9.910;2022-07-29T00:00:05;15.90;1.00
19878;DHT22;10101;52.204;9.910;2022-07-29T00:02:32;15.90;1.00
19878;DHT22;10101;52.204;9.910;2022-07-29T00:05:00;15.90;1.00
19878;DHT22;10101;52.204;9.910;2022-07-29T00:07:27;15.90;1.00
19878;DHT22;10101;52.204;9.910;2022-07-29T00:09:54;15.90;1.00
19878;DHT22;10101;52.204;9.910;2022-07-29T00:12:23;15.70;99.90
19878;DHT22;10101;52.204;9.910;2022-07-29T00:14:50;15.80;99.90
19878;DHT22;10101;52.204;9.910;2022-07-29T00:17:17;15.60;99.90
19878;DHT22;10101;52.204;9.910;2022-07-29T00:19:43;15.70;99.90
19878;DHT22;10101;52.204;9.910;2022-07-29T00:22:11;15.70;99.90
19878;DHT22;10101;52.204;9.910;2022-07-29T00:24:38;15.60;99.90
19878;DHT22;10101;52.204;9.910;2022-07-29T00:27:05;15.50;99.90
19878;DHT22;10101;52.204;9.910;2022-07-29T00:29:32;15.50;99.90
19878;DHT22;10101;52.204;9.910;2022-07-29T00:31:58;15.50;99.90
19878;DHT22;10101;52.204;9.910;2022-07-29T00:34:25;15.60;1.00
19878;DHT22;10101;52.204;9.910;2022-07-29T00:37:10;15.60;99.90
19878;DHT22;10101;52.204;9.910;2022-07-29T00:39:38;15.60;1.00
19878;DHT22;10101;52.204;9.910;2022-07-29T00:42:05;15.60;1.00
19878;DHT22;10101;52.204;9.910;2022-07-29T00:44:36;15.60;1.00
19878;DHT22;10101;52.204;9.910;2022-07-29T00:47:03;15.50;1.00
19878;DHT22;10101;52.204;9.910;2022-07-29T00:49:30;15.50;1.00
19878;DHT22;10101;52.204;9.910;2022-07-29T00:51:57;15.50;1.00
19878;DHT22;10101;52.204;9.910;2022-07-29T00:54:24;15.40;1.00
19878;DHT22;10101;52.204;9.910;2022-07-29T00:56:53;15.30;1.00
19878;DHT22;10101;52.204;9.910;2022-07-29T00:59:20;15.30;1.00
19878;DHT22;10101;52.204;9.910;2022-07-29T01:01:47;15.20;99.90
19878;DHT22;10101;52.204;9.910;2022-07-29T01:04:13;15.30;1.00
19878;DHT22;10101;52.204;9.910;2022-07-29T01:06:41;15.30;1.00
19878;DHT22;10101;52.204;9.910;2022-07-29T01:09:09;15.20;1.00
19878;DHT22;10101;52.204;9.910;2022-07-29T01:11:37;15.10;1.00
19878;DHT22;10101;52.204;9.910;2022-07-29T01:14:07;15.20;1.00
19878;DHT22;10101;52.204;9.910;2022-07-29T01:16:39;15.10;1.00
19878;DHT22;10101;52.204;9.910;2022-07-29T01:19:28;15.40;1.00
19878;DHT22;10101;52.204;9.910;2022-07-29T01:22:00;15.30;1.00
19878;DHT22;10101;52.204;9.910;2022-07-29T01:24:43;15.30;1.00
19878;DHT22;10101;52.204;9.910;2022-07-29T01:27:30;15.30;1.00
19878;DHT22;10101;52.204;9.910;2022-07-29T01:30:02;15.20;1.00
19878;DHT22;10101;52.204;9.910;2022-07-29T01:32:32;15.20;1.00
19878;DHT22;10101;52.204;9.910;2022-07-29T01:35:03;15.10;1.00
19878;DHT22;10101;52.204;9.910;2022-07-29T01:37:36;15.10;1.00
19878;DHT22;10101;52.204;9.910;2022-07-29T01:40:05;15.00;1.00
19878;DHT22;10101;52.204;9.910;2022-07-29T01:42:39;15.00;1.00
19878;DHT22;10101;52.204;9.910;2022-07-29T01:45:13;14.90;1.00
19878;DHT22;10101;52.204;9.910;2022-07-29T01:47:44;14.80;1.00
19878;DHT22;10101;52.204;9.910;2022-07-29T01:50:16;14.80;1.00
19878;DHT22;10101;52.204;9.910;2022-07-29T01:52:47;14.80;1.00
19878;DHT22;10101;52.204;9.910;2022-07-29T01:55:17;14.70;1.00
19878;DHT22;10101;52.204;9.910;2022-07-29T01:57:48;14.60;1.00
19878;DHT22;10101;52.204;9.910;2022-07-29T02:00:17;14.50;1.00
19878;DHT22;10101;52.204;9.910;2022-07-29T02:02:46;14.50;1.00
19878;DHT22;10101;52.204;9.910;2022-07-29T02:05:17;14.40;1.00
19878;DHT22;10101;52.204;9.910;2022-07-29T02:07:46;14.40;1.00
19878;DHT22;10101;52.204;9.910;2022-07-29T02:10:14;14.40;1.00
19878;DHT22;10101;52.204;9.910;2022-07-29T02:12:43;14.20;1.00
19878;DHT22;10101;52.204;9.910;2022-07-29T02:15:15;14.20;1.00
19878;DHT22;10101;52.204;9.910;2022-07-29T02:17:46;14.20;1.00
19878;DHT22;10101;52.204;9.910;2022-07-29T02:20:16;14.20;1.00
19878;DHT22;10101;52.204;9.910;2022-07-29T02:22:44;14.20;1.00
19878;DHT22;10101;52.204;9.910;2022-07-29T02:25:12;14.20;1.00
19878;DHT22;10101;52.204;9.910;2022-07-29T02:27:41;14.30;1.00
19878;DHT22;10101;52.204;9.910;2022-07-29T02:30:09;14.40;1.00
19878;DHT22;10101;52.204;9.910;2022-07-29T02:32:40;14.40;1.00
19878;DHT22;10101;52.204;9.910;2022-07-29T02:35:09;14.50;1.00
19878;DHT22;10101;52.204;9.910;2022-07-29T02:37:36;14.50;1.00
19878;DHT22;10101;52.204;9.910;2022-07-29T02:40:08;14.50;1.00
19878;DHT22;10101;52.204;9.910;2022-07-29T02:42:36;14.40;1.00
19878;DHT22;10101;52.204;9.910;2022-07-29T02:45:04;14.50;1.00
19878;DHT22;10101;52.204;9.910;2022-07-29T02:47:35;14.40;1.00
19878;DHT22;10101;52.204;9.910;2022-07-29T02:50:06;14.40;1.80
19878;DHT22;10101;52.204;9.910;2022-07-29T02:52:41;14.40;10.20
19878;DHT22;10101;52.204;9.910;2022-07-29T02:55:16;14.40;33.20
19878;DHT22;10101;52.204;9.910;2022-07-29T02:57:47;14.40;72.50
19878;DHT22;10101;52.204;9.910;2022-07-29T03:00:17;14.50;96.30
19878;DHT22;10101;52.204;9.910;2022-07-29T03:02:45;14.50;99.90
19878;DHT22;10101;52.204;9.910;2022-07-29T03:05:19;14.60;99.90
19878;DHT22;10101;52.204;9.910;2022-07-29T03:07:51;14.60;99.90
19878;DHT22;10101;52.204;9.910;2022-07-29T03:10:19;14.60;99.90
19878;DHT22;10101;52.204;9.910;2022-07-29T03:12:46;14.50;99.90
19878;DHT22;10101;52.204;9.910;2022-07-29T03:15:14;14.50;99.90
19878;DHT22;10101;52.204;9.910;2022-07-29T03:17:41;14.40;99.90
19878;DHT22;10101;52.204;9.910;2022-07-29T03:20:10;14.40;99.90
19878;DHT22;10101;52.204;9.910;2022-07-29T03:22:40;14.40;99.90
19878;DHT22;10101;52.204;9.910;2022-07-29T03:25:09;14.40;99.90
19878;DHT22;10101;52.204;9.910;2022-07-29T03:27:36;14.40;99.90
19878;DHT22;10101;52.204;9.910;2022-07-29T03:30:04;14.50;99.90
19878;DHT22;10101;52.204;9.910;2022-07-29T03:32:31;14.50;99.90
19878;DHT22;10101;52.204;9.910;2022-07-29T03:34:57;14.40;99.90
19878;DHT22;10101;52.204;9.910;2022-07-29T03:37:24;14.50;99.90
19878;DHT22;10101;52.204;9.910;2022-07-29T03:39:54;14.50;99.90
19878;DHT22;10101;52.204;9.910;2022-07-29T03:42:24;14.50;99.90
19878;DHT22;10101;52.204;9.910;2022-07-29T03:44:51;14.60;99.90
19878;DHT22;10101;52.204;9.910;2022-07-29T03:47:22;14.50;99.90
19878;DHT22;10101;52.204;9.910;2022-07-29T03:49:55;14.40;99.90
19878;DHT22;10101;52.204;9.910;2022-07-29T03:52:23;14.40;99.90
19878;DHT22;10101;52.204;9.910;2022-07-29T03:54:51;14.30;99.90
19878;DHT22;10101;52.204;9.910;2022-07-29T03:57:20;14.30;99.90
19878;DHT22;10101;52.204;9.910;2022-07-29T03:59:51;13.90;99.90
19878;DHT22;10101;52.204;9.910;2022-07-29T04:02:18;14.30;99.90
19878;DHT22;10101;52.204;9.910;2022-07-29T04:04:45;14.40;99.90
19878;DHT22;10101;52.204;9.910;2022-07-29T04:07:13;14.50;99.90
19878;DHT22;10101;52.204;9.910;2022-07-29T04:09:40;14.50;99.90
19878;DHT22;10101;52.204;9.910;2022-07-29T04:12:09;14.50;99.90
19878;DHT22;10101;52.204;9.910;2022-07-29T04:14:36;14.50;99.90
19878;DHT22;10101;52.204;9.910;2022-07-29T04:17:04;14.50;99.90
19878;DHT22;10101;52.204;9.910;2022-07-29T04:19:31;14.60;99.90
19878;DHT22;10101;52.204;9.910;2022-07-29T04:21:59;14.60;99.90
19878;DHT22;10101;52.204;9.910;2022-07-29T04:24:26;14.20;99.90
19878;DHT22;10101;52.204;9.910;2022-07-29T04:26:53;14.60;99.90
19878;DHT22;10101;52.204;9.910;2022-07-29T04:29:21;14.60;99.90
19878;DHT22;10101;52.204;9.910;2022-07-29T04:31:48;14.70;99.90
19878;DHT22;10101;52.204;9.910;2022-07-29T04:34:15;14.90;99.90
19878;DHT22;10101;52.204;9.910;2022-07-29T04:36:42;14.80;99.90
19878;DHT22;10101;52.204;9.910;2022-07-29T04:39:09;14.80;99.90
19878;DHT22;10101;52.204;9.910;2022-07-29T04:41:35;14.80;99.90
19878;DHT22;10101;52.204;9.910;2022-07-29T04:44:02;14.70;99.90
19878;DHT22;10101;52.204;9.910;2022-07-29T04:46:32;14.80;99.90
19878;DHT22;10101;52.204;9.910;2022-07-29T04:48:58;14.80;99.90
19878;DHT22;10101;52.204;9.910;2022-07-29T04:51:25;15.00;99.90
19878;DHT22;10101;52.204;9.910;2022-07-29T04:53:55;14.90;99.90
19878;DHT22;10101;52.204;9.910;2022-07-29T04:56:22;14.90;99.90
19878;DHT22;10101;52.204;9.910;2022-07-29T04:58:48;14.90;99.90
19878;DHT22;10101;52.204;9.910;2022-07-29T05:01:15;15.00;99.90
19878;DHT22;10101;52.204;9.910;2022-07-29T05:03:44;15.10;99.90
19878;DHT22;10101;52.204;9.910;2022-07-29T05:06:11;15.10;99.90
19878;DHT22;10101;52.204;9.910;2022-07-29T05:08:38;15.10;99.90
19878;DHT22;10101;52.204;9.910;2022-07-29T05:11:04;15.20;99.90
19878;DHT22;10101;52.204;9.910;2022-07-29T05:13:31;15.20;99.90
19878;DHT22;10101;52.204;9.910;2022-07-29T05:15:58;15.40;99.90
19878;DHT22;10101;52.204;9.910;2022-07-29T05:18:25;15.50;99.90
19878;DHT22;10101;52.204;9.910;2022-07-29T05:20:53;15.60;99.90
19878;DHT22;10101;52.204;9.910;2022-07-29T05:23:20;15.60;99.90
19878;DHT22;10101;52.204;9.910;2022-07-29T05:25:47;15.60;99.90
19878;DHT22;10101;52.204;9.910;2022-07-29T05:28:15;15.60;99.90
19878;DHT22;10101;52.204;9.910;2022-07-29T05:30:42;15.70;99.90
19878;DHT22;10101;52.204;9.910;2022-07-29T05:33:09;15.80;99.90
19878;DHT22;10101;52.204;9.910;2022-07-29T05:35:36;16.00;99.90
19878;DHT22;10101;52.204;9.910;2022-07-29T05:38:04;16.00;99.90
19878;DHT22;10101;52.204;9.910;2022-07-29T05:40:31;16.30;99.90
19878;DHT22;10101;52.204;9.910;2022-07-29T05:42:59;16.30;99.90
19878;DHT22;10101;52.204;9.910;2022-07-29T05:45:26;16.60;99.90
19878;DHT22;10101;52.204;9.910;2022-07-29T05:47:53;16.50;99.90
19878;DHT22;10101;52.204;9.910;2022-07-29T05:50:19;16.40;99.90
19878;DHT22;10101;52.204;9.910;2022-07-29T05:52:46;16.50;99.90
19878;DHT22;10101;52.204;9.910;2022-07-29T05:55:14;16.40;99.90
19878;DHT22;10101;52.204;9.910;2022-07-29T05:57:41;16.60;99.90
19878;DHT22;10101;52.204;9.910;2022-07-29T06:00:10;16.60;99.90
19878;DHT22;10101;52.204;9.910;2022-07-29T06:02:36;16.60;99.90
19878;DHT22;10101;52.204;9.910;2022-07-29T06:05:04;16.40;99.90
19878;DHT22;10101;52.204;9.910;2022-07-29T06:07:31;16.60;99.90
19878;DHT22;10101;52.204;9.910;2022-07-29T06:09:58;16.50;99.90
19878;DHT22;10101;52.204;9.910;2022-07-29T06:12:26;16.60;99.90
19878;DHT22;10101;52.204;9.910;2022-07-29T06:14:52;16.50;99.90
19878;DHT22;10101;52.204;9.910;2022-07-29T06:17:19;16.40;99.90
19878;DHT22;10101;52.204;9.910;2022-07-29T06:19:46;16.40;72.70
19878;DHT22;10101;52.204;9.910;2022-07-29T06:22:15;16.60;96.60
19878;DHT22;10101;52.204;9.910;2022-07-29T06:24:41;16.70;94.50
19878;DHT22;10101;52.204;9.910;2022-07-29T06:27:09;16.70;1.00
19878;DHT22;10101;52.204;9.910;2022-07-29T06:29:37;17.10;71.70
19878;DHT22;10101;52.204;9.910;2022-07-29T06:32:05;17.30;99.90
19878;DHT22;10101;52.204;9.910;2022-07-29T06:34:32;17.40;99.90
19878;DHT22;10101;52.204;9.910;2022-07-29T06:36:59;17.70;99.90
19878;DHT22;10101;52.204;9.910;2022-07-29T06:39:25;17.90;99.90
19878;DHT22;10101;52.204;9.910;2022-07-29T06:41:53;17.90;99.90
19878;DHT22;10101;52.204;9.910;2022-07-29T06:44:20;18.20;99.90
19878;DHT22;10101;52.204;9.910;2022-07-29T06:46:48;18.10;99.90
19878;DHT22;10101;52.204;9.910;2022-07-29T06:49:17;18.10;99.90
19878;DHT22;10101;52.204;9.910;2022-07-29T06:51:43;18.10;95.60
19878;DHT22;10101;52.204;9.910;2022-07-29T06:54:10;18.20;83.50
19878;DHT22;10101;52.204;9.910;2022-07-29T06:56:38;18.60;99.90
19878;DHT22;10101;52.204;9.910;2022-07-29T06:59:08;18.80;99.90
19878;DHT22;10101;52.204;9.910;2022-07-29T07:01:36;19.20;99.90
19878;DHT22;10101;52.204;9.910;2022-07-29T07:04:04;18.90;99.90
19878;DHT22;10101;52.204;9.910;2022-07-29T07:06:31;18.80;1.00
19878;DHT22;10101;52.204;9.910;2022-07-29T07:08:58;19.00;99.90
19878;DHT22;10101;52.204;9.910;2022-07-29T07:11:25;18.90;1.00
19878;DHT22;10101;52.204;9.910;2022-07-29T07:13:52;18.80;1.00
19878;DHT22;10101;52.204;9.910;2022-07-29T07:16:19;19.10;81.50
19878;DHT22;10101;52.204;9.910;2022-07-29T07:18:46;19.20;45.60
19878;DHT22;10101;52.204;9.910;2022-07-29T07:21:14;19.10;1.00
19878;DHT22;10101;52.204;9.910;2022-07-29T07:23:41;19.10;1.00
19878;DHT22;10101;52.204;9.910;2022-07-29T07:26:08;19.30;1.00
19878;DHT22;10101;52.204;9.910;2022-07-29T07:28:35;19.20;1.00
19878;DHT22;10101;52.204;9.910;2022-07-29T07:31:02;19.20;1.00
19878;DHT22;10101;52.204;9.910;2022-07-29T07:33:29;19.30;1.00
19878;DHT22;10101;52.204;9.910;2022-07-29T07:35:55;19.40;1.00
19878;DHT22;10101;52.204;9.910;2022-07-29T07:38:23;19.50;1.00
19878;DHT22;10101;52.204;9.910;2022-07-29T07:40:50;19.70;1.00
19878;DHT22;10101;52.204;9.910;2022-07-29T07:43:17;19.60;1.00
19878;DHT22;10101;52.204;9.910;2022-07-29T07:45:44;19.80;1.00
19878;DHT22;10101;52.204;9.910;2022-07-29T07:48:11;19.80;1.00
19878;DHT22;10101;52.204;9.910;2022-07-29T07:50:38;20.10;1.00
19878;DHT22;10101;52.204;9.910;2022-07-29T07:53:05;20.00;1.00
19878;DHT22;10101;52.204;9.910;2022-07-29T07:55:33;20.20;1.00
19878;DHT22;10101;52.204;9.910;2022-07-29T07:58:00;20.40;1.00
19878;DHT22;10101;52.204;9.910;2022-07-29T08:00:27;20.50;1.00
19878;DHT22;10101;52.204;9.910;2022-07-29T08:02:53;20.70;1.00
19878;DHT22;10101;52.204;9.910;2022-07-29T08:05:20;20.80;1.00
19878;DHT22;10101;52.204;9.910;2022-07-29T08:07:47;21.00;1.00
19878;DHT22;10101;52.204;9.910;2022-07-29T08:10:14;20.90;1.00
19878;DHT22;10101;52.204;9.910;2022-07-29T08:13:03;21.40;1.00
19878;DHT22;10101;52.204;9.910;2022-07-29T08:15:30;21.40;1.00
19878;DHT22;10101;52.204;9.910;2022-07-29T08:17:57;21.20;1.00
19878;DHT22;10101;52.204;9.910;2022-07-29T08:20:24;20.90;1.00
19878;DHT22;10101;52.204;9.910;2022-07-29T08:22:52;20.90;1.00
19878;DHT22;10101;52.204;9.910;2022-07-29T08:25:19;20.60;1.00
19878;DHT22;10101;52.204;9.910;2022-07-29T08:27:46;21.10;1.00
19878;DHT22;10101;52.204;9.910;2022-07-29T08:30:14;21.10;1.00
19878;DHT22;10101;52.204;9.910;2022-07-29T08:32:41;20.90;1.00
19878;DHT22;10101;52.204;9.910;2022-07-29T08:35:08;21.10;1.00
19878;DHT22;10101;52.204;9.910;2022-07-29T08:37:35;21.10;1.00
19878;DHT22;10101;52.204;9.910;2022-07-29T08:40:03;21.20;1.00
19878;DHT22;10101;52.204;9.910;2022-07-29T08:42:30;21.50;1.00
19878;DHT22;10101;52.204;9.910;2022-07-29T08:44:57;21.30;1.00
19878;DHT22;10101;52.204;9.910;2022-07-29T08:47:26;21.40;1.00
19878;DHT22;10101;52.204;9.910;2022-07-29T08:49:54;21.40;1.00
19878;DHT22;10101;52.204;9.910;2022-07-29T08:52:21;21.20;99.90
19878;DHT22;10101;52.204;9.910;2022-07-29T08:54:52;21.30;99.90
19878;DHT22;10101;52.204;9.910;2022-07-29T08:57:20;21.50;1.00
19878;DHT22;10101;52.204;9.910;2022-07-29T08:59:50;21.40;99.90
19878;DHT22;10101;52.204;9.910;2022-07-29T09:02:20;21.50;1.00
19878;DHT22;10101;52.204;9.910;2022-07-29T09:04:48;21.90;1.00
19878;DHT22;10101;52.204;9.910;2022-07-29T09:07:17;22.00;1.00
19878;DHT22;10101;52.204;9.910;2022-07-29T09:09:44;22.40;1.00
19878;DHT22;10101;52.204;9.910;2022-07-29T09:12:11;22.40;99.90
19878;DHT22;10101;52.204;9.910;2022-07-29T09:14:39;23.00;1.00
19878;DHT22;10101;52.204;9.910;2022-07-29T09:17:07;23.30;99.90
19878;DHT22;10101;52.204;9.910;2022-07-29T09:19:35;23.40;99.90
19878;DHT22;10101;52.204;9.910;2022-07-29T09:22:05;23.40;99.90
19878;DHT22;10101;52.204;9.910;2022-07-29T09:24:39;23.60;99.90
19878;DHT22;10101;52.204;9.910;2022-07-29T09:27:25;23.20;99.90
19878;DHT22;10101;52.204;9.910;2022-07-29T09:29:56;23.20;99.90
19878;DHT22;10101;52.204;9.910;2022-07-29T09:32:24;23.20;99.90
19878;DHT22;10101;52.204;9.910;2022-07-29T09:34:54;23.40;99.90
19878;DHT22;10101;52.204;9.910;2022-07-29T09:37:41;23.30;99.90
19878;DHT22;10101;52.204;9.910;2022-07-29T09:40:12;23.50;99.90
19878;DHT22;10101;52.204;9.910;2022-07-29T09:42:39;23.40;99.90
19878;DHT22;10101;52.204;9.910;2022-07-29T09:45:07;23.90;99.90
19878;DHT22;10101;52.204;9.910;2022-07-29T09:47:42;24.20;99.90
19878;DHT22;10101;52.204;9.910;2022-07-29T09:50:10;24.50;96.90
19878;DHT22;10101;52.204;9.910;2022-07-29T09:52:46;24.30;71.40
19878;DHT22;10101;52.204;9.910;2022-07-29T09:55:13;24.70;27.70
19878;DHT22;10101;52.204;9.910;2022-07-29T09:57:40;24.80;9.10
19878;DHT22;10101;52.204;9.910;2022-07-29T10:00:10;24.30;1.00
19878;DHT22;10101;52.204;9.910;2022-07-29T10:02:39;24.40;1.00
19878;DHT22;10101;52.204;9.910;2022-07-29T10:05:16;24.80;1.00
19878;DHT22;10101;52.204;9.910;2022-07-29T10:07:46;24.20;1.00
19878;DHT22;10101;52.204;9.910;2022-07-29T10:10:19;24.50;1.00
19878;DHT22;10101;52.204;9.910;2022-07-29T10:12:49;24.10;1.00
19878;DHT22;10101;52.204;9.910;2022-07-29T10:15:16;24.20;1.00
19878;DHT22;10101;52.204;9.910;2022-07-29T10:17:44;24.40;1.00
19878;DHT22;10101;52.204;9.910;2022-07-29T10:20:11;24.70;1.00
19878;DHT22;10101;52.204;9.910;2022-07-29T10:22:39;24.70;1.00
19878;DHT22;10101;52.204;9.910;2022-07-29T10:25:08;24.60;1.00
19878;DHT22;10101;52.204;9.910;2022-07-29T10:27:35;25.00;1.00
19878;DHT22;10101;52.204;9.910;2022-07-29T10:30:03;25.10;1.00
19878;DHT22;10101;52.204;9.910;2022-07-29T10:32:38;25.00;1.00
19878;DHT22;10101;52.204;9.910;2022-07-29T10:35:18;25.20;1.00
19878;DHT22;10101;52.204;9.910;2022-07-29T10:38:09;25.30;1.00
19878;DHT22;10101;52.204;9.910;2022-07-29T10:40:45;24.90;1.00
19878;DHT22;10101;52.204;9.910;2022-07-29T10:43:44;25.30;1.00
19878;DHT22;10101;52.204;9.910;2022-07-29T10:46:11;25.40;1.00
19878;DHT22;10101;52.204;9.910;2022-07-29T10:49:07;25.30;1.00
19878;DHT22;10101;52.204;9.910;2022-07-29T10:52:03;24.90;1.00
19878;DHT22;10101;52.204;9.910;2022-07-29T10:54:47;24.80;1.00
19878;DHT22;10101;52.204;9.910;2022-07-29T10:57:24;25.00;1.00
19878;DHT22;10101;52.204;9.910;2022-07-29T11:00:26;24.90;1.00
19878;DHT22;10101;52.204;9.910;2022-07-29T11:02:53;24.50;1.00
19878;DHT22;10101;52.204;9.910;2022-07-29T11:05:22;24.40;1.00
19878;DHT22;10101;52.204;9.910;2022-07-29T11:08:22;24.40;1.00
19878;DHT22;10101;52.204;9.910;2022-07-29T11:13:48;24.40;1.00
19878;DHT22;10101;52.204;9.910;2022-07-29T11:16:16;24.40;1.00
19878;DHT22;10101;52.204;9.910;2022-07-29T11:19:22;24.50;1.00
19878;DHT22;10101;52.204;9.910;2022-07-29T11:21:49;24.60;1.00
19878;DHT22;10101;52.204;9.910;2022-07-29T11:24:19;24.60;1.00
19878;DHT22;10101;52.204;9.910;2022-07-29T11:27:10;24.70;1.00
19878;DHT22;10101;52.204;9.910;2022-07-29T11:29:47;24.80;1.00
19878;DHT22;10101;52.204;9.910;2022-07-29T11:32:16;24.60;1.00
19878;DHT22;10101;52.204;9.910;2022-07-29T11:34:45;24.50;1.00
19878;DHT22;10101;52.204;9.910;2022-07-29T11:37:17;24.40;1.00
19878;DHT22;10101;52.204;9.910;2022-07-29T11:39:45;24.50;1.00
19878;DHT22;10101;52.204;9.910;2022-07-29T11:42:43;24.90;1.00
19878;DHT22;10101;52.204;9.910;2022-07-29T11:45:13;24.80;1.00
19878;DHT22;10101;52.204;9.910;2022-07-29T11:47:46;24.80;1.00
19878;DHT22;10101;52.204;9.910;2022-07-29T11:50:14;24.60;1.00
19878;DHT22;10101;52.204;9.910;2022-07-29T11:52:43;24.40;1.00
19878;DHT22;10101;52.204;9.910;2022-07-29T11:55:11;24.50;1.00
19878;DHT22;10101;52.204;9.910;2022-07-29T11:57:45;24.70;1.00
19878;DHT22;10101;52.204;9.910;2022-07-29T12:00:22;25.00;1.00
19878;DHT22;10101;52.204;9.910;2022-07-29T12:02:49;24.90;1.00
19878;DHT22;10101;52.204;9.910;2022-07-29T12:05:17;24.80;1.00
19878;DHT22;10101;52.204;9.910;2022-07-29T12:07:44;24.70;1.00
19878;DHT22;10101;52.204;9.910;2022-07-29T12:10:11;24.80;1.00
19878;DHT22;10101;52.204;9.910;2022-07-29T12:12:38;25.20;1.00
19878;DHT22;10101;52.204;9.910;2022-07-29T12:15:17;25.10;1.00
19878;DHT22;10101;52.204;9.910;2022-07-29T12:17:46;25.40;1.00
19878;DHT22;10101;52.204;9.910;2022-07-29T12:20:22;25.90;1.00
19878;DHT22;10101;52.204;9.910;2022-07-29T12:22:49;26.20;1.00
19878;DHT22;10101;52.204;9.910;2022-07-29T12:25:16;26.10;1.00
19878;DHT22;10101;52.204;9.910;2022-07-29T12:27:44;25.90;1.00
19878;DHT22;10101;52.204;9.910;2022-07-29T12:30:14;26.20;1.00
19878;DHT22;10101;52.204;9.910;2022-07-29T12:32:44;26.30;1.00
19878;DHT22;10101;52.204;9.910;2022-07-29T12:35:12;26.40;1.00
19878;DHT22;10101;52.204;9.910;2022-07-29T12:37:42;26.00;1.00
19878;DHT22;10101;52.204;9.910;2022-07-29T12:40:10;26.10;1.00
19878;DHT22;10101;52.204;9.910;2022-07-29T12:42:38;26.30;1.00
19878;DHT22;10101;52.204;9.910;2022-07-29T12:45:06;26.10;1.00
19878;DHT22;10101;52.204;9.910;2022-07-29T12:47:33;26.10;1.00
19878;DHT22;10101;52.204;9.910;2022-07-29T12:50:18;26.10;1.00
19878;DHT22;10101;52.204;9.910;2022-07-29T12:52:45;26.50;1.00
19878;DHT22;10101;52.204;9.910;2022-07-29T12:55:12;26.30;1.00
19878;DHT22;10101;52.204;9.910;2022-07-29T12:57:50;26.30;1.00
19878;DHT22;10101;52.204;9.910;2022-07-29T13:00:22;26.60;1.00
19878;DHT22;10101;52.204;9.910;2022-07-29T13:02:55;26.90;1.00
19878;DHT22;10101;52.204;9.910;2022-07-29T13:05:23;26.80;1.00
19878;DHT22;10101;52.204;9.910;2022-07-29T13:07:50;26.60;1.00
19878;DHT22;10101;52.204;9.910;2022-07-29T13:10:18;26.50;1.00
19878;DHT22;10101;52.204;9.910;2022-07-29T13:13:02;26.30;1.00
19878;DHT22;10101;52.204;9.910;2022-07-29T13:15:29;26.70;1.00
19878;DHT22;10101;52.204;9.910;2022-07-29T13:17:56;26.40;1.00
19878;DHT22;10101;52.204;9.910;2022-07-29T13:20:26;26.60;1.00
19878;DHT22;10101;52.204;9.910;2022-07-29T13:22:55;27.00;99.90
19878;DHT22;10101;52.204;9.910;2022-07-29T13:25:26;26.80;99.90
19878;DHT22;10101;52.204;9.910;2022-07-29T13:27:54;26.50;99.90
19878;DHT22;10101;52.204;9.910;2022-07-29T13:30:22;26.60;99.90
19878;DHT22;10101;52.204;9.910;2022-07-29T13:32:49;26.30;99.90
19878;DHT22;10101;52.204;9.910;2022-07-29T13:35:17;26.60;99.90
19878;DHT22;10101;52.204;9.910;2022-07-29T13:37:46;26.60;99.90
19878;DHT22;10101;52.204;9.910;2022-07-29T13:40:13;26.80;99.90
19878;DHT22;10101;52.204;9.910;2022-07-29T13:42:41;27.00;99.90
19878;DHT22;10101;52.204;9.910;2022-07-29T13:45:08;27.20;99.90
19878;DHT22;10101;52.204;9.910;2022-07-29T13:47:36;27.00;99.90
19878;DHT22;10101;52.204;9.910;2022-07-29T13:50:05;26.80;99.90
19878;DHT22;10101;52.204;9.910;2022-07-29T13:52:32;27.00;99.90
19878;DHT22;10101;52.204;9.910;2022-07-29T13:55:00;27.30;99.90
19878;DHT22;10101;52.204;9.910;2022-07-29T13:57:27;27.30;99.90
19878;DHT22;10101;52.204;9.910;2022-07-29T13:59:55;27.70;99.90
19878;DHT22;10101;52.204;9.910;2022-07-29T14:02:22;27.60;99.90
19878;DHT22;10101;52.204;9.910;2022-07-29T14:04:49;27.70;99.90
19878;DHT22;10101;52.204;9.910;2022-07-29T14:07:16;28.60;99.90
19878;DHT22;10101;52.204;9.910;2022-07-29T14:09:43;29.40;99.90
19878;DHT22;10101;52.204;9.910;2022-07-29T14:12:11;30.50;99.90
19878;DHT22;10101;52.204;9.910;2022-07-29T14:14:38;31.90;99.90
19878;DHT22;10101;52.204;9.910;2022-07-29T14:17:05;32.60;99.90
19878;DHT22;10101;52.204;9.910;2022-07-29T14:19:32;32.40;99.90
19878;DHT22;10101;52.204;9.910;2022-07-29T14:22:02;31.20;99.90
19878;DHT22;10101;52.204;9.910;2022-07-29T14:24:29;30.60;99.90
19878;DHT22;10101;52.204;9.910;2022-07-29T14:26:56;30.40;99.90
19878;DHT22;10101;52.204;9.910;2022-07-29T14:29:24;29.90;99.90
19878;DHT22;10101;52.204;9.910;2022-07-29T14:31:51;29.70;99.90
19878;DHT22;10101;52.204;9.910;2022-07-29T14:34:18;29.20;99.90
19878;DHT22;10101;52.204;9.910;2022-07-29T14:36:45;28.60;99.90
19878;DHT22;10101;52.204;9.910;2022-07-29T14:39:12;29.00;99.90
19878;DHT22;10101;52.204;9.910;2022-07-29T14:41:41;29.30;99.90
19878;DHT22;10101;52.204;9.910;2022-07-29T14:44:07;30.40;99.90
19878;DHT22;10101;52.204;9.910;2022-07-29T14:46:36;31.90;99.90
19878;DHT22;10101;52.204;9.910;2022-07-29T14:49:02;32.90;99.90
19878;DHT22;10101;52.204;9.910;2022-07-29T14:51:29;33.90;99.90
19878;DHT22;10101;52.204;9.910;2022-07-29T14:53:56;34.00;99.90
19878;DHT22;10101;52.204;9.910;2022-07-29T14:56:23;33.60;99.90
19878;DHT22;10101;52.204;9.910;2022-07-29T14:58:50;32.60;99.90
19878;DHT22;10101;52.204;9.910;2022-07-29T15:01:17;31.70;99.90
19878;DHT22;10101;52.204;9.910;2022-07-29T15:03:45;31.30;99.90
19878;DHT22;10101;52.204;9.910;2022-07-29T15:06:12;30.60;99.90
19878;DHT22;10101;52.204;9.910;2022-07-29T15:08:38;29.70;99.90
19878;DHT22;10101;52.204;9.910;2022-07-29T15:11:05;29.60;99.90
19878;DHT22;10101;52.204;9.910;2022-07-29T15:13:33;29.40;99.90
19878;DHT22;10101;52.204;9.910;2022-07-29T15:16:00;29.30;99.90
19878;DHT22;10101;52.204;9.910;2022-07-29T15:18:27;28.90;99.90
19878;DHT22;10101;52.204;9.910;2022-07-29T15:20:55;28.80;99.90
19878;DHT22;10101;52.204;9.910;2022-07-29T15:23:22;28.60;99.90
19878;DHT22;10101;52.204;9.910;2022-07-29T15:25:48;28.50;99.90
19878;DHT22;10101;52.204;9.910;2022-07-29T15:28:15;28.10;99.90
19878;DHT22;10101;52.204;9.910;2022-07-29T15:30:42;27.90;99.90
19878;DHT22;10101;52.204;9.910;2022-07-29T15:33:09;28.10;99.90
19878;DHT22;10101;52.204;9.910;2022-07-29T15:35:36;27.70;99.90
19878;DHT22;10101;52.204;9.910;2022-07-29T15:38:05;28.00;99.90
19878;DHT22;10101;52.204;9.910;2022-07-29T15:40:31;28.00;99.90
19878;DHT22;10101;52.204;9.910;2022-07-29T15:42:58;27.60;99.90
19878;DHT22;10101;52.204;9.910;2022-07-29T15:45:35;27.50;99.90
19878;DHT22;10101;52.204;9.910;2022-07-29T15:48:02;27.40;99.90
19878;DHT22;10101;52.204;9.910;2022-07-29T15:50:29;27.60;99.90
19878;DHT22;10101;52.204;9.910;2022-07-29T15:52:56;27.60;99.90